CYZR

Sarnia Chris Hadfield Airport

Sarnia, , Canada
METAR CYZR 191200Z AUTO 19006KT 5SM BR CLR M02/M03 A3000 RMK SLP170
Observed Flight Rules
Dec-19 @ 12:00 UTC (28 minutes ago) Marginal Visual Flight Rules
Wind Visibility Clouds Conditions
190° at 6 knots 5 miles
  • Clear skies
  • Mist
Temperatures Readings
Current -2°C / 28°F
Dewpoint -3°C / 27°F
Humidity 93%
Altimeter 30" Hg
Pressure 1017 hPa
Elevation 181
METAR CYZR 191200Z AUTO 19006KT 5SM BR CLR M02/M03 A3000 RMK SLP170
Observed Flight Rules
Dec-19 @ 12:00 UTC
(28 minutes ago)
MVFR
Wind Visibility
190° at 6 knots 5 miles
Clouds
  • Clear skies
Conditions
  • Mist
Temperature Dewpoint
-2°C / 28°F -3°C / 27°F
Humidity Altimeter Pressure
93% 30" Hg 1017 hPa